Alma, Colorado
Current Conditions -  °F | °C
As of 10:57 PM on Thursday 30 Oct 2014 (Local Time) from KCCU Reporting Station
Clear Clear  
Wind Chill: 29°   Ceiling: Unl
Heat Index: 37°   Visibility: NA
Dew Point:   Wind: 15mph
Humidity: 30%   Direction: 170°S
Pressure: 30.58"   Gusts: NA
Location:  39.28°N, 106.06°W
Report Text: KCCU 310457Z AUTO 17013KT CLR 03/M13 A3058 RMK AO2 PWINO
Loading
Personal Weather Stations






























Interactive Weather Map New forecast layout! Learn more

10-Day Weather Forecast

Advertisements
Track Severe Weather on mobile